Time;durP1;ratioP1;P1;durP2;ratioP2;P2;SDS_P1;SDS_P2;PMS_P1;PMS_P2;Temp;Humidity;BMP_temperature;BMP_pressure;BME280_temperature;BME280_humidity;BME280_pressure;Samples;Min_cycle;Max_cycle;Signal;HPM_P1;HPM_P2
2023/09/20 00:02:06;;;;;;;;;;;;;;;23.68;54.41;101523.47;5047314;28;19923;-87
2023/09/20 00:04:33;;;;;;;;;;;;;;;23.64;54.57;101526.97;5035500;28;19921;-86
2023/09/20 00:06:58;;;;;;;;;;;;;;;23.62;54.73;101521.66;5020122;28;20356;-87
2023/09/20 00:09:24;;;;;;;;;;;;;;;23.65;nan;101528.78;5055119;28;19916;-87
2023/09/20 00:11:49;;;;;;;;;;;;;;;23.67;54.41;101529.72;5043296;28;20384;-87
2023/09/20 00:14:14;;;;;;;;;;;;;;;23.67;54.28;101524.38;5033614;28;19917;-85
2023/09/20 00:16:40;;;;;;;;;;;;;;;23.65;54.32;101523.47;5044639;28;19913;-86
2023/09/20 00:19:06;;;;;;;;;;;;;;;23.64;54.19;101521.66;5052254;28;19917;-87
2023/09/20 00:21:31;;;;;;;;;;;;;;;23.64;54.25;101519.88;5039300;28;19962;-86
2023/09/20 00:23:56;;;;;;;;;;;;;;;23.66;54.10;101518.13;5042484;28;19920;-86
2023/09/20 00:26:22;;;;;;;;;;;;;;;23.62;54.40;101520.72;5050369;28;20007;-86
2023/09/20 00:28:48;;;;;;;;;;;;;;;23.66;54.42;101514.56;5039579;28;19916;-86
2023/09/20 00:31:15;;;;;;;;;;;;;;;23.63;54.22;101515.44;5048139;28;19974;-87
2023/09/20 00:33:40;;;;;;;;;;;;;;;23.62;54.41;101518.06;5037459;28;19916;-86
2023/09/20 00:36:07;;;;;;;;;;;;;;;23.61;54.42;101519.84;5017973;28;19983;-86
2023/09/20 00:38:34;;;;;;;;;;;;;;;23.59;54.44;101518.94;5033458;28;19975;-86
2023/09/20 00:41:03;;;;;;;;;;;;;;;23.54;54.38;101523.31;5036423;28;20005;-85
2023/09/20 00:43:29;;;;;;;;;;;;;;;23.60;54.44;101531.41;5031170;28;19924;-86
2023/09/20 00:45:54;;;;;;;;;;;;;;;23.55;54.76;101531.31;5017150;28;19913;-86
2023/09/20 00:48:20;;;;;;;;;;;;;;;23.55;54.57;101525.97;5039516;28;19943;-86
2023/09/20 00:50:45;;;;;;;;;;;;;;;23.54;54.65;101524.22;5033245;28;19913;-86
2023/09/20 00:53:11;;;;;;;;;;;;;;;23.53;54.60;101532.19;5034924;28;19971;-86
2023/09/20 00:55:36;;;;;;;;;;;;;;;23.49;54.76;101523.25;5035970;28;19917;-87
2023/09/20 00:58:07;;;;;;;;;;;;;;;23.50;54.80;101527.72;5030467;28;19924;-88
2023/09/20 01:00:37;;;;;;;;;;;;;;;23.46;54.79;101531.22;5034081;28;19916;-87
2023/09/20 01:03:03;;;;;;;;;;;;;;;23.54;54.61;101534.88;5033530;28;19932;-86
2023/09/20 01:05:34;;;;;;;;;;;;;;;23.50;54.62;101527.72;5031977;28;20031;-86
2023/09/20 01:08:00;;;;;;;;;;;;;;;23.53;54.42;101532.19;5016253;28;19975;-86
2023/09/20 01:10:26;;;;;;;;;;;;;;;23.55;54.56;101533.09;5042556;28;19957;-86
2023/09/20 01:12:55;;;;;;;;;;;;;;;23.48;54.68;101532.13;5045657;28;19983;-87
2023/09/20 01:15:21;;;;;;;;;;;;;;;23.46;54.67;101533.00;5033245;28;19917;-88
2023/09/20 01:17:47;;;;;;;;;;;;;;;23.49;54.59;101531.25;5048391;28;19925;-88
2023/09/20 01:20:14;;;;;;;;;;;;;;;23.45;54.65;101537.44;5051613;28;19916;-88
2023/09/20 01:22:40;;;;;;;;;;;;;;;23.44;54.79;101538.28;5051463;28;19920;-88
2023/09/20 01:25:11;;;;;;;;;;;;;;;23.45;54.68;101539.19;5034657;28;20291;-87
2023/09/20 01:27:37;;;;;;;;;;;;;;;23.43;54.79;101538.25;5031449;28;19927;-87
2023/09/20 01:30:03;;;;;;;;;;;;;;;23.44;54.71;101535.63;5046515;28;19920;-87
2023/09/20 01:32:29;;;;;;;;;;;;;;;23.45;54.54;101536.50;5048461;28;19975;-89
2023/09/20 01:34:55;;;;;;;;;;;;;;;23.48;54.49;101532.13;5026722;28;20305;-87
2023/09/20 01:37:21;;;;;;;;;;;;;;;23.42;54.83;101539.16;5047189;28;19966;-87
2023/09/20 01:39:46;;;;;;;;;;;;;;;23.44;54.61;101537.41;5044379;28;19921;-88
2023/09/20 01:42:12;;;;;;;;;;;;;;;23.43;54.60;101523.19;5026500;28;19917;-88
2023/09/20 01:44:37;;;;;;;;;;;;;;;23.42;54.48;101524.03;5042083;28;20051;-87
2023/09/20 01:47:04;;;;;;;;;;;;;;;23.38;54.71;101522.22;5053198;28;19927;-86
2023/09/20 01:49:32;;;;;;;;;;;;;;;23.46;54.39;101517.00;5018229;28;19928;-87
2023/09/20 01:51:58;;;;;;;;;;;;;;;23.45;54.45;101521.44;5018284;28;19917;-87
2023/09/20 01:54:28;;;;;;;;;;;;;;;23.44;54.39;101516.97;5030789;28;20061;-87
2023/09/20 01:56:55;;;;;;;;;;;;;;;23.41;54.64;101510.69;5034139;28;19924;-87
2023/09/20 01:59:21;;;;;;;;;;;;;;;23.36;54.71;101510.63;5035791;28;19960;-87
2023/09/20 02:01:48;;;;;;;;;;;;;;;23.37;54.65;101508.00;5033303;28;20378;-86
2023/09/20 02:04:15;;;;;;;;;;;;;;;23.37;54.53;101513.31;5024080;28;19982;-86
2023/09/20 02:06:41;;;;;;;;;;;;;;;23.36;54.86;101508.84;5044143;28;19925;-88
2023/09/20 02:09:06;;;;;;;;;;;;;;;23.41;54.50;101508.94;5032001;28;19956;-87
2023/09/20 02:11:32;;;;;;;;;;;;;;;23.37;54.51;101509.78;5041568;28;20373;-88
2023/09/20 02:13:57;;;;;;;;;;;;;;;23.37;54.63;101512.44;5045866;28;19924;-87
2023/09/20 02:16:23;;;;;;;;;;;;;;;23.33;54.65;101506.16;5015906;28;20367;-87
2023/09/20 02:18:48;;;;;;;;;;;;;;;23.34;54.79;101507.06;5053005;28;19913;-87
2023/09/20 02:21:14;;;;;;;;;;;;;;;23.32;54.84;101503.47;5059005;28;20007;-87
2023/09/20 02:23:39;;;;;;;;;;;;;;;23.31;54.91;101499.91;5033818;28;19921;-87
2023/09/20 02:26:05;;;;;;;;;;;;;;;23.32;54.80;101506.13;5034279;28;19913;-87
2023/09/20 02:28:31;;;;;;;;;;;;;;;23.32;54.81;101498.13;5048582;28;19924;-87
2023/09/20 02:30:56;;;;;;;;;;;;;;;23.30;54.74;101502.56;5019532;28;19920;-87
2023/09/20 02:33:22;;;;;;;;;;;;;;;23.33;54.81;101495.50;5043622;28;20003;-87
2023/09/20 02:35:48;;;;;;;;;;;;;;;23.32;54.65;101501.69;5048444;28;19924;-87
2023/09/20 02:38:13;;;;;;;;;;;;;;;23.26;54.81;101504.31;5046194;28;19967;-87
2023/09/20 02:40:39;;;;;;;;;;;;;;;23.27;54.93;101498.09;5034675;28;20338;-87
2023/09/20 02:43:07;;;;;;;;;;;;;;;23.28;54.88;101504.31;5051259;28;19917;-87
2023/09/20 02:45:36;;;;;;;;;;;;;;;23.26;54.79;101509.63;5016592;28;20358;-87
2023/09/20 02:48:20;;;;;;;;;;;;;;;23.26;55.05;101508.72;5035181;28;19917;-88
2023/09/20 02:50:46;;;;;;;;;;;;;;;23.25;54.83;101510.50;5022922;28;19913;-86
2023/09/20 02:53:12;;;;;;;;;;;;;;;23.23;54.92;101514.91;5033665;28;19931;-86
2023/09/20 02:55:39;;;;;;;;;;;;;;;23.23;54.96;101514.91;5032363;28;19917;-87
2023/09/20 02:58:04;;;;;;;;;;;;;;;23.27;54.85;101519.41;5029382;28;19917;-86
2023/09/20 03:00:32;;;;;;;;;;;;;;;23.26;54.89;101522.03;5030395;28;19983;-86
2023/09/20 03:03:00;;;;;;;;;;;;;;;23.26;54.85;101517.63;5015499;28;20642;-89
2023/09/20 03:05:27;;;;;;;;;;;;;;;23.27;54.75;101518.53;5011283;28;20182;-84
2023/09/20 03:07:53;;;;;;;;;;;;;;;23.23;54.75;101519.34;5015464;28;19925;-87
2023/09/20 03:10:21;;;;;;;;;;;;;;;23.22;54.80;101518.47;5045427;28;19924;-87
2023/09/20 03:12:48;;;;;;;;;;;;;;;23.19;55.10;101520.19;5036397;28;19916;-87
2023/09/20 03:15:17;;;;;;;;;;;;;;;23.19;55.07;101522.84;5048688;28;20385;-88
2023/09/20 03:17:48;;;;;;;;;;;;;;;23.19;55.05;101521.06;5016787;28;19925;-85
2023/09/20 03:20:32;;;;;;;;;;;;;;;23.17;54.93;101518.38;5014959;28;20382;-86
2023/09/20 03:22:58;;;;;;;;;;;;;;;23.19;55.05;101512.19;5047660;28;20453;-85
2023/09/20 03:25:24;;;;;;;;;;;;;;;23.21;54.84;101513.09;5031781;28;19924;-85
2023/09/20 03:27:50;;;;;;;;;;;;;;;23.21;54.63;101503.31;5050601;28;20320;-84
2023/09/20 03:30:22;;;;;;;;;;;;;;;23.23;54.66;101496.25;5038879;28;20433;-86
2023/09/20 03:32:47;;;;;;;;;;;;;;;23.16;54.87;101500.59;5040743;28;19974;-86
2023/09/20 03:35:14;;;;;;;;;;;;;;;23.16;54.91;101497.94;5021380;28;20012;-86
2023/09/20 03:37:40;;;;;;;;;;;;;;;23.16;54.96;101492.63;5047595;28;19992;-88
2023/09/20 03:40:10;;;;;;;;;;;;;;;23.16;54.87;101497.06;5033205;28;19917;-86
2023/09/20 03:42:36;;;;;;;;;;;;;;;23.15;54.80;101498.78;5042572;28;19917;-88
2023/09/20 03:45:01;;;;;;;;;;;;;;;23.15;54.87;101498.78;5047526;28;19917;-86
2023/09/20 03:47:27;;;;;;;;;;;;;;;23.13;54.83;101505.00;5048845;28;19921;-87
2023/09/20 03:49:54;;;;;;;;;;;;;;;23.14;54.80;101506.78;5017000;28;19921;-86
2023/09/20 03:52:19;;;;;;;;;;;;;;;23.13;54.85;101505.88;5012911;28;19917;-88
2023/09/20 03:54:49;;;;;;;;;;;;;;;23.12;54.99;101508.53;5011570;28;19944;-87
2023/09/20 03:57:15;;;;;;;;;;;;;;;23.10;55.02;101520.94;5043510;28;19924;-87
2023/09/20 03:59:41;;;;;;;;;;;;;;;23.07;55.09;101527.13;5045444;28;19978;-87
2023/09/20 04:02:12;;;;;;;;;;;;;;;23.10;55.00;101526.28;5050906;28;19923;-87
2023/09/20 04:04:38;;;;;;;;;;;;;;;23.09;55.25;101535.13;5050819;28;19921;-86
2023/09/20 04:07:04;;;;;;;;;;;;;;;23.07;55.24;101523.53;5034553;28;20543;-87
2023/09/20 04:09:32;;;;;;;;;;;;;;;23.08;54.95;101528.91;5001614;28;19944;-85
2023/09/20 04:11:57;;;;;;;;;;;;;;;23.08;55.13;101533.34;5030737;28;20360;-86
2023/09/20 04:14:24;;;;;;;;;;;;;;;23.08;55.15;101528.03;5025312;28;20398;-87
2023/09/20 04:16:49;;;;;;;;;;;;;;;23.03;55.23;101521.72;5010667;28;19932;-84
2023/09/20 04:19:15;;;;;;;;;;;;;;;23.07;54.92;101521.81;5025345;28;19917;-84
2023/09/20 04:21:40;;;;;;;;;;;;;;;23.08;55.05;101523.56;5026837;28;19925;-85
2023/09/20 04:24:06;;;;;;;;;;;;;;;23.06;55.11;101525.31;5011979;28;19921;-83
2023/09/20 04:26:32;;;;;;;;;;;;;;;23.08;54.90;101517.34;5039132;28;19921;-83
2023/09/20 04:28:58;;;;;;;;;;;;;;;23.08;54.81;101514.69;5015446;28;19921;-83
2023/09/20 04:31:23;;;;;;;;;;;;;;;23.07;54.83;101515.56;5026642;28;19924;-84
2023/09/20 04:33:49;;;;;;;;;;;;;;;23.03;55.05;101511.06;5008958;28;19918;-83
2023/09/20 04:36:15;;;;;;;;;;;;;;;23.05;54.82;101511.97;5029916;28;19917;-83
2023/09/20 04:38:41;;;;;;;;;;;;;;;23.07;54.87;101513.81;5030878;28;19917;-84
2023/09/20 04:41:11;;;;;;;;;;;;;;;23.04;54.79;101518.19;5005022;28;19917;-84
2023/09/20 04:43:37;;;;;;;;;;;;;;;23.02;54.80;101515.50;5015140;28;19925;-83
2023/09/20 04:46:04;;;;;;;;;;;;;;;23.03;54.93;101517.31;5023602;28;19917;-84
2023/09/20 04:48:31;;;;;;;;;;;;;;;23.03;54.92;101519.97;4998422;28;19920;-84
2023/09/20 04:50:57;;;;;;;;;;;;;;;22.98;55.09;101527.81;5011425;28;19917;-84
2023/09/20 04:53:23;;;;;;;;;;;;;;;23.00;55.03;101522.53;5032983;28;19924;-82
2023/09/20 04:55:49;;;;;;;;;;;;;;;23.01;55.05;101518.13;5033722;28;19913;-83
2023/09/20 04:58:17;;;;;;;;;;;;;;;23.04;54.82;101515.53;5013632;28;19918;-84
2023/09/20 05:00:43;;;;;;;;;;;;;;;23.02;54.79;101518.16;5008803;28;20411;-84
2023/09/20 05:03:11;;;;;;;;;;;;;;;23.05;55.69;101510.22;5014552;28;20015;-84
2023/09/20 05:05:36;;;;;;;;;;;;;;;22.81;58.24;101516.03;5038895;28;19928;-82
2023/09/20 05:08:04;;;;;;;;;;;;;;;22.71;59.20;101517.66;5038648;28;19921;-89
2023/09/20 05:10:29;;;;;;;;;;;;;;;22.87;58.00;101510.78;5031247;28;19917;-83
2023/09/20 05:12:55;;;;;;;;;;;;;;;22.97;57.24;101509.19;5035747;28;19924;-83
2023/09/20 05:15:23;;;;;;;;;;;;;;;23.05;56.43;101511.97;5026969;28;19917;-84
2023/09/20 05:17:49;;;;;;;;;;;;;;;23.14;55.47;101509.47;5031952;28;20401;-81
2023/09/20 05:20:14;;;;;;;;;;;;;;;22.86;54.79;101516.09;5029969;28;19917;-84
2023/09/20 05:22:40;;;;;;;;;;;;;;;22.83;54.18;101519.59;5040505;28;19927;-84
2023/09/20 05:25:07;;;;;;;;;;;;;;;22.78;53.94;101521.31;5036037;28;20310;-84
2023/09/20 05:27:33;;;;;;;;;;;;;;;22.82;53.41;101520.50;5016923;28;19921;-84
2023/09/20 05:29:58;;;;;;;;;;;;;;;22.85;53.25;101512.53;5024978;28;19924;-82
2023/09/20 05:32:24;;;;;;;;;;;;;;;23.11;52.89;101517.38;5032761;28;20005;-83
2023/09/20 05:34:50;;;;;;;;;;;;;;;23.06;52.03;101520.00;5017655;28;19921;-83
2023/09/20 05:37:16;;;;;;;;;;;;;;;22.95;52.36;101522.47;5048234;28;19924;-84
2023/09/20 05:39:43;;;;;;;;;;;;;;;22.94;52.20;101518.03;5033683;28;19924;-83
2023/09/20 05:42:09;;;;;;;;;;;;;;;23.01;51.96;101521.72;5032369;28;19953;-83
2023/09/20 05:44:36;;;;;;;;;;;;;;;23.01;51.79;101515.47;5013142;28;19983;-83
2023/09/20 05:47:08;;;;;;;;;;;;;;;23.05;51.73;101520.88;5034050;28;20427;-84
2023/09/20 05:49:33;;;;;;;;;;;;;;;23.09;51.73;101520.06;5025647;28;20381;-82
2023/09/20 05:51:59;;;;;;;;;;;;;;;23.03;51.59;101517.31;5029804;28;19932;-82
2023/09/20 05:54:25;;;;;;;;;;;;;;;23.05;51.40;101522.63;5039835;28;19921;-82
2023/09/20 05:56:51;;;;;;;;;;;;;;;23.03;51.45;101529.69;5029350;28;19923;-83
2023/09/20 05:59:16;;;;;;;;;;;;;;;23.07;51.28;101526.22;5001345;28;19918;-81
2023/09/20 06:01:42;;;;;;;;;;;;;;;23.08;51.21;101541.34;5027996;28;19917;-82
2023/09/20 06:04:09;;;;;;;;;;;;;;;23.21;50.83;101539.75;5006414;28;19949;-82
2023/09/20 06:06:35;;;;;;;;;;;;;;;23.08;51.04;101544.88;5021526;28;19921;-85
2023/09/20 06:09:01;;;;;;;;;;;;;;;23.10;50.94;101544.94;5028096;28;19921;-83
2023/09/20 06:11:26;;;;;;;;;;;;;;;23.15;50.79;101552.09;5020813;28;19995;-83
2023/09/20 06:13:52;;;;;;;;;;;;;;;23.18;50.84;101556.59;5037477;28;19925;-83
2023/09/20 06:16:19;;;;;;;;;;;;;;;23.18;50.77;101559.25;5032005;28;19917;-84
2023/09/20 06:18:47;;;;;;;;;;;;;;;23.21;50.65;101561.06;5017929;28;20008;-84
2023/09/20 06:21:13;;;;;;;;;;;;;;;23.20;50.55;101567.25;5028806;28;20008;-84
2023/09/20 06:23:39;;;;;;;;;;;;;;;23.15;50.64;101557.41;5017244;28;20011;-85
2023/09/20 06:26:05;;;;;;;;;;;;;;;23.16;50.40;101561.00;5030169;28;20003;-84
2023/09/20 06:28:31;;;;;;;;;;;;;;;23.10;50.60;101561.81;5021768;28;20012;-84
2023/09/20 06:31:01;;;;;;;;;;;;;;;23.22;50.37;101557.50;5028494;28;19956;-85
2023/09/20 06:33:27;;;;;;;;;;;;;;;23.16;50.28;101563.66;5011827;28;19913;-84
2023/09/20 06:35:55;;;;;;;;;;;;;;;23.28;50.20;101557.59;5030289;28;19917;-85
2023/09/20 06:38:23;;;;;;;;;;;;;;;23.22;50.02;101558.44;5024025;28;19925;-83
2023/09/20 06:40:53;;;;;;;;;;;;;;;23.17;50.18;101566.34;5024380;28;19918;-84
2023/09/20 06:43:18;;;;;;;;;;;;;;;23.16;50.12;101563.66;5009669;28;19932;-83
2023/09/20 06:45:51;;;;;;;;;;;;;;;23.19;50.02;101560.16;5031566;28;20343;-84
2023/09/20 06:48:24;;;;;;;;;;;;;;;23.19;50.22;101571.69;5028634;28;19921;-84
2023/09/20 06:50:50;;;;;;;;;;;;;;;23.19;49.98;101574.34;5002369;28;19921;-84
2023/09/20 06:53:17;;;;;;;;;;;;;;;23.32;49.65;101578.09;5008100;28;19966;-85
2023/09/20 06:55:43;;;;;;;;;;;;;;;23.32;49.73;101578.09;5030312;28;20204;-86
2023/09/20 06:58:08;;;;;;;;;;;;;;;23.26;49.50;101570.00;5028680;28;20410;-85
2023/09/20 07:00:35;;;;;;;;;;;;;;;23.25;49.85;101589.56;5026199;28;19928;-84
2023/09/20 07:03:02;;;;;;;;;;;;;;;23.27;49.69;101598.47;5014738;28;19928;-87
2023/09/20 07:05:28;;;;;;;;;;;;;;;23.34;49.56;101592.34;5031233;28;19925;-83
2023/09/20 07:07:54;;;;;;;;;;;;;;;23.36;49.28;101595.94;5014770;28;20354;-85
2023/09/20 07:10:20;;;;;;;;;;;;;;;23.32;49.52;101594.09;5027820;28;19971;-85
2023/09/20 07:12:45;;;;;;;;;;;;;;;23.31;49.44;101602.97;5025012;28;19921;-84
2023/09/20 07:15:21;;;;;;;;;;;;;;;23.32;49.33;101596.75;5031353;28;19936;-85
2023/09/20 07:17:58;;;;;;;;;;;;;;;23.36;49.89;101596.81;5037560;28;19917;-85
2023/09/20 07:20:31;;;;;;;;;;;;;;;23.29;49.63;101605.59;5031399;28;19972;-83
2023/09/20 07:22:58;;;;;;;;;;;;;;;23.30;50.18;101604.72;5036355;28;20369;-86
2023/09/20 07:25:27;;;;;;;;;;;;;;;23.32;49.99;101605.63;5003364;28;20586;-85
2023/09/20 07:28:03;;;;;;;;;;;;;;;23.31;49.65;101608.31;5031531;28;20586;-84
2023/09/20 07:30:31;;;;;;;;;;;;;;;23.28;49.40;101605.56;5020515;28;19913;-86
2023/09/20 07:32:59;;;;;;;;;;;;;;;23.33;49.40;101607.44;5015169;28;20298;-86
2023/09/20 07:35:36;;;;;;;;;;;;;;;23.32;49.22;101604.75;5032039;28;20011;-86
2023/09/20 07:38:03;;;;;;;;;;;;;;;23.48;48.91;101611.22;5016823;28;19982;-86
2023/09/20 07:40:29;;;;;;;;;;;;;;;23.33;49.05;101607.44;5016764;28;19925;-86
2023/09/20 07:42:59;;;;;;;;;;;;;;;23.40;48.85;101604.88;5014356;28;19961;-88
2023/09/20 07:45:26;;;;;;;;;;;;;;;23.40;48.79;101612.88;5014143;28;19917;-86
2023/09/20 07:47:52;;;;;;;;;;;;;;;23.34;48.93;101605.66;5022139;28;19925;-87
2023/09/20 07:50:17;;;;;;;;;;;;;;;23.33;48.71;101602.13;5010858;28;19913;-85
2023/09/20 07:52:44;;;;;;;;;;;;;;;23.44;48.68;101596.94;5014830;28;19932;-84
2023/09/20 07:55:11;;;;;;;;;;;;;;;23.42;48.51;101606.69;5030959;28;19917;-84
2023/09/20 07:57:38;;;;;;;;;;;;;;;23.44;48.47;101599.59;5032322;28;19921;-84
2023/09/20 08:00:07;;;;;;;;;;;;;;;23.35;48.75;101602.16;5016676;28;19913;-86
2023/09/20 08:02:33;;;;;;;;;;;;;;;23.43;48.43;101613.81;5015390;28;19917;-86
2023/09/20 08:04:58;;;;;;;;;;;;;;;23.49;48.29;101616.56;5019246;28;20294;-85
2023/09/20 08:07:23;;;;;;;;;;;;;;;23.44;48.31;101614.72;5051352;28;19921;-85
2023/09/20 08:09:49;;;;;;;;;;;;;;;23.44;48.19;101606.72;5017055;28;19979;-87
2023/09/20 08:12:14;;;;;;;;;;;;;;;23.48;48.00;101613.88;5024608;28;19922;-85
2023/09/20 08:14:40;;;;;;;;;;;;;;;23.46;48.14;101613.84;5015893;28;19921;-86
2023/09/20 08:19:49;;;;;;;;;;;;;;;23.57;47.71;101606.91;5013308;28;20455;-86
2023/09/20 08:22:17;;;;;;;;;;;;;;;23.55;47.89;101608.63;5044124;28;19971;-86
2023/09/20 09:00:24;;;;;;;;;;;;;;;23.59;47.52;101614.91;5044840;28;19970;-87
2023/09/20 09:02:59;;;;;;;;;;;;;;;23.62;47.48;101622.06;5057427;28;19927;-85
2023/09/20 09:05:28;;;;;;;;;;;;;;;23.56;47.73;101620.22;5042627;28;19929;-86
2023/09/20 09:07:55;;;;;;;;;;;;;;;23.77;47.21;101615.22;5049619;28;19916;-86
2023/09/20 09:10:20;;;;;;;;;;;;;;;23.72;47.26;101621.31;5042373;28;20130;-87
2023/09/20 09:12:46;;;;;;;;;;;;;;;23.66;47.45;101622.13;5042361;28;19995;-86
2023/09/20 09:15:12;;;;;;;;;;;;;;;23.72;47.46;101623.97;5042369;28;19916;-88
2023/09/20 09:17:44;;;;;;;;;;;;;;;23.77;47.23;101617.88;5034653;28;19913;-86
2023/09/20 09:20:14;;;;;;;;;;;;;;;23.79;47.46;101620.53;5042598;28;19917;-86
2023/09/20 09:22:43;;;;;;;;;;;;;;;23.83;47.17;101619.72;5036775;28;19920;-86
2023/09/20 09:25:12;;;;;;;;;;;;;;;23.81;47.41;101616.13;5054240;28;19942;-86
2023/09/20 09:27:41;;;;;;;;;;;;;;;23.78;47.47;101610.78;5048714;28;19917;-86
2023/09/20 09:30:14;;;;;;;;;;;;;;;23.88;47.29;101602.00;5033135;28;19913;-85
2023/09/20 09:32:40;;;;;;;;;;;;;;;23.91;47.50;101611.81;5034160;28;19913;-86
2023/09/20 09:35:06;;;;;;;;;;;;;;;23.89;47.98;101605.56;5044063;28;19920;-86
2023/09/20 09:37:32;;;;;;;;;;;;;;;23.84;48.01;101601.97;5047702;28;20310;-86
2023/09/20 09:39:59;;;;;;;;;;;;;;;23.92;47.81;101609.19;5046195;28;19969;-87
2023/09/20 09:42:26;;;;;;;;;;;;;;;23.87;48.15;101604.66;5017784;28;19914;-87
2023/09/20 09:44:52;;;;;;;;;;;;;;;23.89;48.05;101602.91;5046633;28;20440;-86
2023/09/20 09:47:18;;;;;;;;;;;;;;;23.87;48.13;101605.53;5052627;28;20406;-87
2023/09/20 09:49:44;;;;;;;;;;;;;;;23.94;48.38;101601.22;5035372;28;19924;-84
2023/09/20 09:52:10;;;;;;;;;;;;;;;23.86;48.63;101600.22;5032955;28;19916;-87
2023/09/20 09:54:35;;;;;;;;;;;;;;;23.81;48.77;101605.47;5034259;28;20004;-87
2023/09/20 09:57:01;;;;;;;;;;;;;;;23.83;48.50;101611.72;5035287;28;20031;-87
2023/09/20 09:59:26;;;;;;;;;;;;;;;23.87;48.44;101602.88;5036005;28;19913;-85
2023/09/20 10:01:55;;;;;;;;;;;;;;;23.97;48.28;101594.09;5046949;28;19913;-85
2023/09/20 10:04:20;;;;;;;;;;;;;;;23.95;48.32;101594.97;5034638;28;19913;-86
2023/09/20 10:06:50;;;;;;;;;;;;;;;23.98;47.99;101590.59;5035696;28;19924;-87
2023/09/20 10:09:17;;;;;;;;;;;;;;;24.00;47.97;101592.34;5052767;28;19912;-85
2023/09/20 10:11:43;;;;;;;;;;;;;;;23.98;47.84;101595.00;5025010;28;19923;-85
2023/09/20 10:14:10;;;;;;;;;;;;;;;24.03;48.00;101593.28;5017490;28;19913;-85
2023/09/20 10:16:36;;;;;;;;;;;;;;;23.96;47.96;101591.41;5039487;28;20382;-85
2023/09/20 10:19:02;;;;;;;;;;;;;;;24.00;47.90;101589.69;5034688;28;20003;-85
2023/09/20 10:21:31;;;;;;;;;;;;;;;23.99;47.93;101594.13;5035451;28;19963;-87
2023/09/20 10:24:00;;;;;;;;;;;;;;;23.99;48.20;101594.13;5043424;28;19914;-85
2023/09/20 10:26:26;;;;;;;;;;;;;;;24.02;47.93;101593.28;5051985;28;19912;-85
2023/09/20 10:28:53;;;;;;;;;;;;;;;24.01;47.95;101588.81;5040844;28;19924;-85
2023/09/20 10:31:20;;;;;;;;;;;;;;;24.05;47.78;101579.97;5025959;28;19914;-86
2023/09/20 10:33:46;;;;;;;;;;;;;;;24.01;47.95;101594.16;5042571;28;20301;-86
2023/09/20 10:36:13;;;;;;;;;;;;;;;24.06;47.70;101590.66;5043617;28;19936;-86
2023/09/20 10:38:44;;;;;;;;;;;;;;;24.13;47.37;101595.19;5020149;28;19913;-86
2023/09/20 10:41:10;;;;;;;;;;;;;;;24.09;47.66;101595.16;5035650;28;19921;-86
2023/09/20 10:43:36;;;;;;;;;;;;;;;24.11;47.57;101596.06;5014528;28;20650;-87
2023/09/20 10:46:22;;;;;;;;;;;;;;;24.08;47.43;101593.34;5047115;28;19924;-86
2023/09/20 10:48:49;;;;;;;;;;;;;;;24.09;47.29;101590.69;5035405;28;19917;-86
2023/09/20 10:51:33;;;;;;;;;;;;;;;24.03;47.51;101587.97;5032410;28;20485;-87
2023/09/20 10:53:58;;;;;;;;;;;;;;;24.03;47.56;101592.41;5037650;28;19917;-85
2023/09/20 10:56:43;;;;;;;;;;;;;;;24.04;47.29;101581.72;5033940;28;20393;-85
2023/09/20 10:59:14;;;;;;;;;;;;;;;24.03;47.47;101584.41;5032629;28;19974;-86
2023/09/20 11:01:39;;;;;;;;;;;;;;;24.10;47.22;101587.13;5017435;28;19917;-86
2023/09/20 11:04:05;;;;;;;;;;;;;;;24.10;47.22;101579.13;5039745;28;19919;-86
2023/09/20 11:06:31;;;;;;;;;;;;;;;24.03;47.56;101579.97;5032737;28;20392;-86
2023/09/20 11:08:56;;;;;;;;;;;;;;;24.03;47.63;101579.06;5051278;28;19916;-86
2023/09/20 11:11:23;;;;;;;;;;;;;;;24.08;47.44;101577.34;5018277;28;19928;-85
2023/09/20 11:13:49;;;;;;;;;;;;;;;24.05;47.52;101574.66;5030911;28;19928;-82
2023/09/20 11:16:18;;;;;;;;;;;;;;;24.10;47.57;101568.47;5048194;28;20003;-85
2023/09/20 11:18:47;;;;;;;;;;;;;;;24.03;47.56;101566.63;5046562;28;19917;-84
2023/09/20 11:21:12;;;;;;;;;;;;;;;24.09;47.51;101564.00;5025779;28;19929;-84
2023/09/20 11:23:38;;;;;;;;;;;;;;;24.13;47.52;101563.19;5031479;28;20322;-84
2023/09/20 11:26:04;;;;;;;;;;;;;;;24.12;47.42;101565.81;5021561;28;19939;-85
2023/09/20 11:28:32;;;;;;;;;;;;;;;24.20;47.20;101565.91;5014612;28;19956;-84
2023/09/20 11:30:58;;;;;;;;;;;;;;;24.24;47.19;101560.63;5017672;28;20011;-85
2023/09/20 11:33:30;;;;;;;;;;;;;;;24.20;47.42;101550.78;5041031;28;20059;-85
2023/09/20 11:35:55;;;;;;;;;;;;;;;24.26;46.95;101550.84;5044158;28;19924;-85
2023/09/20 11:38:21;;;;;;;;;;;;;;;24.32;46.93;101552.66;5041272;28;19921;-85
2023/09/20 11:40:47;;;;;;;;;;;;;;;24.29;46.69;101553.53;5014052;28;20401;-85
2023/09/20 11:43:17;;;;;;;;;;;;;;;24.32;46.72;101544.66;5014246;28;20321;-85
2023/09/20 11:45:42;;;;;;;;;;;;;;;24.33;46.94;101544.69;5048117;28;19923;-85
2023/09/20 11:48:08;;;;;;;;;;;;;;;24.38;46.57;101544.72;5021441;28;19921;-86
2023/09/20 11:50:34;;;;;;;;;;;;;;;24.35;46.62;101547.38;5017589;28;20469;-85
2023/09/20 11:52:59;;;;;;;;;;;;;;;24.44;46.57;101549.22;5034050;28;19962;-85
2023/09/20 11:55:26;;;;;;;;;;;;;;;24.39;46.77;101549.19;5034396;28;19936;-84
2023/09/20 11:57:52;;;;;;;;;;;;;;;24.40;46.60;101545.63;5051137;28;19923;-85
2023/09/20 12:00:18;;;;;;;;;;;;;;;24.36;46.71;101544.72;5052987;28;20007;-85
2023/09/20 12:02:44;;;;;;;;;;;;;;;24.39;46.71;101539.41;5048859;28;19999;-85
2023/09/20 12:05:10;;;;;;;;;;;;;;;24.44;46.53;101535.88;5055211;28;19928;-85
2023/09/20 12:07:36;;;;;;;;;;;;;;;24.55;46.25;101536.91;5038388;28;19923;-85
2023/09/20 12:10:01;;;;;;;;;;;;;;;24.39;46.59;101538.53;5031776;28;20007;-84
2023/09/20 12:12:27;;;;;;;;;;;;;;;24.32;46.70;101532.22;5007596;28;20032;-84
2023/09/20 12:14:53;;;;;;;;;;;;;;;24.32;46.97;101528.63;5030710;28;19990;-85
2023/09/20 12:17:19;;;;;;;;;;;;;;;24.34;46.58;101526.88;5013561;28;19913;-85
2023/09/20 12:19:44;;;;;;;;;;;;;;;24.35;46.57;101523.34;5014915;28;19920;-85
2023/09/20 12:22:10;;;;;;;;;;;;;;;24.30;46.52;101525.97;5030652;28;19956;-85
2023/09/20 12:24:35;;;;;;;;;;;;;;;24.30;46.65;101527.72;5026094;28;20299;-85
2023/09/20 12:27:00;;;;;;;;;;;;;;;24.35;46.79;101528.69;5040759;28;19979;-84
2023/09/20 12:29:26;;;;;;;;;;;;;;;24.38;46.75;101523.34;5038576;28;19973;-82
2023/09/20 12:31:52;;;;;;;;;;;;;;;24.38;46.85;101523.34;5032396;28;19914;-88
2023/09/20 12:34:18;;;;;;;;;;;;;;;24.36;46.85;101511.78;5003982;28;20382;-88
2023/09/20 12:36:45;;;;;;;;;;;;;;;24.33;46.59;101517.97;5018110;28;19930;-86
2023/09/20 12:39:12;;;;;;;;;;;;;;;24.46;46.50;101519.00;5024025;28;19949;-89
2023/09/20 12:41:38;;;;;;;;;;;;;;;24.41;46.30;101511.84;5005480;28;19913;-88
2023/09/20 12:44:07;;;;;;;;;;;;;;;24.50;46.25;101518.16;5024637;28;19918;-87
2023/09/20 12:46:33;;;;;;;;;;;;;;;24.42;46.32;101511.84;5030935;28;20454;-85
2023/09/20 12:48:58;;;;;;;;;;;;;;;24.49;46.22;101518.16;4997310;28;19995;-86
2023/09/20 12:51:25;;;;;;;;;;;;;;;24.49;46.24;101510.13;5029085;28;19913;-86
2023/09/20 12:53:50;;;;;;;;;;;;;;;24.53;45.99;101504.88;5005537;28;20005;-86
2023/09/20 12:56:16;;;;;;;;;;;;;;;24.50;46.11;101506.59;5008570;28;20007;-86
2023/09/20 12:58:41;;;;;;;;;;;;;;;24.58;45.96;101499.56;5009386;28;20016;-87
2023/09/20 13:01:09;;;;;;;;;;;;;;;24.54;45.91;101500.41;4999308;28;19920;-88
2023/09/20 13:03:34;;;;;;;;;;;;;;;24.55;46.05;101497.75;4989840;28;19928;-86
2023/09/20 13:05:59;;;;;;;;;;;;;;;24.56;45.85;101493.31;5013151;28;19925;-86
2023/09/20 13:08:25;;;;;;;;;;;;;;;24.61;45.74;101491.53;5020890;28;19968;-88
2023/09/20 13:10:51;;;;;;;;;;;;;;;24.63;45.88;101492.47;5042880;28;19932;-89
2023/09/20 13:13:19;;;;;;;;;;;;;;;24.62;45.83;101489.75;5034379;28;19912;-89